Flight Track Log - Related Links

Times and Time Zones

All times are in EDT time to prevent confusion due to time zone crossing. See the N272AY flight status page for this flight to view local times or setup timezone preferences in your user account.

Time Position Orientation Groundspeed Altitude Reporting Facility
EDT Latitude Longitude Course Direction KTS MPH feet Rate Location/Type
Thu 05:35:45 AM 53.8191 -1.7184 288° West 460 529 34,500  Level FlightAware UK
Thu 05:36:03 AM 53.8311 -1.7793 288° West 460 529 34,500  Level FlightAware UK
Thu 05:36:21 AM 53.8421 -1.8410 287° West 460 529 34,500 -3,555 Level FlightAware UK
Thu 05:38:00 AM 53.8850 -2.1085 285° West  Level Estimated
Thu 05:44:58 AM 49.9800 8.5280 285° West 147 169 2,800  Level FlightAware ADS-B
Thu 05:45:00 AM 54.0860 -3.4258 285° West  Level Estimated
Thu 05:45:13 AM 49.9670 8.5290 177° South 167 192 3,000  Level FlightAware ADS-B
Thu 05:45:43 AM 49.9450 8.5300 178° South 181 208 3,500 1,320 Climbing FlightAware ADS-B
Thu 05:46:03 AM 49.9290 8.5310 178° South 182 209 4,100 1,600 Climbing FlightAware ADS-B
Thu 05:46:28 AM 49.9030 8.5330 177° South 206 237 4,700 1,600 Climbing FlightAware ADS-B
Thu 05:47:18 AM 49.8550 8.5240 187° South 221 254 6,100 1,840 Climbing FlightAware ADS-B
Thu 05:47:43 AM 49.8260 8.5070 201° Southwest 240 276 7,000 2,160 Climbing FlightAware ADS-B
Thu 05:48:08 AM 49.8010 8.4940 199° South 243 280 7,900 2,182 Climbing FlightAware ADS-B
Thu 05:48:38 AM 49.7670 8.4680 206° Southwest 249 287 9,000 2,280 Climbing FlightAware ADS-B
Thu 05:48:58 AM 49.7590 8.4360 249° West 242 278 9,800 1,694 Climbing FlightAware ADS-B
Thu 05:50:03 AM 49.7540 8.3170 266° West 284 327 11,400 1,473 Climbing FlightAware ADS-B
Thu 05:50:48 AM 49.7500 8.2180 266° West 313 360 12,500 1,800 Climbing FlightAware ADS-B
Thu 05:51:23 AM 49.7470 8.1400 267° West 317 365 13,800 1,840 Climbing FlightAware ADS-B
Thu 05:52:03 AM 49.7430 8.0450 266° West 335 386 14,800 1,835 Climbing FlightAware ADS-B
Thu 05:52:48 AM 49.7390 7.9370 267° West 340 391 16,400 1,933 Climbing FlightAware ADS-B
Thu 05:53:33 AM 49.7340 7.8290 266° West 348 400 17,700 1,650 Climbing FlightAware ADS-B
Thu 05:54:08 AM 49.7300 7.7400 266° West 356 410 18,600 1,560 Climbing FlightAware ADS-B
Thu 05:55:13 AM 49.7230 7.5730 266° West 365 420 20,300 1,565 Climbing FlightAware ADS-B
Thu 05:56:03 AM 49.7160 7.4380 265° West 372 428 21,600 1,473 Climbing FlightAware ADS-B
Thu 05:57:03 AM 49.7090 7.2790 266° West 378 435 23,000 1,389 Climbing FlightAware ADS-B
Thu 05:57:38 AM 49.7040 7.1850 265° West 381 438 23,800 1,200 Climbing FlightAware ADS-B
Thu 05:58:28 AM 49.6990 7.0780 266° West 383 441 24,700 1,263 Climbing FlightAware ADS-B
Thu 05:59:13 AM 49.6920 6.9470 265° West 382 440 25,800 1,200 Climbing FlightAware ADS-B
Thu 05:59:53 AM 49.6870 6.8390 266° West 390 449 26,400 1,120 Climbing FlightAware ADS-B
Thu 06:00:28 AM 49.6820 6.7470 265° West 389 448 27,200 1,860 Climbing FlightAware ADS-B
Thu 06:01:33 AM 49.6710 6.5660 265° West 364 419 29,500 1,714 Climbing FlightAware ADS-B
Thu 06:02:13 AM 49.6650 6.4690 265° West 362 417 30,200 1,255 Climbing FlightAware ADS-B
Thu 06:03:23 AM 49.6550 6.2960 265° West 347 399 31,800 1,200 Climbing FlightAware ADS-B
Thu 06:04:03 AM 49.6500 6.2170 264° West 345 397 32,400 988 Climbing FlightAware ADS-B
Thu 06:04:48 AM 49.6420 6.0900 264° West 340 391 33,200 825 Climbing FlightAware ADS-B
Thu 06:05:23 AM 49.6350 5.9830 264° West 348 400 33,500 706 Climbing FlightAware ADS-B
Thu 06:06:13 AM 49.6270 5.8600 264° West 348 400 34,200 800 Climbing FlightAware ADS-B
Thu 06:06:53 AM 49.6210 5.7590 265° West 349 402 34,700 640 Climbing FlightAware ADS-B
Thu 06:07:28 AM 49.6160 5.6810 264° West 348 400 35,000 225 Climbing FlightAware ADS-B
Thu 06:08:13 AM 49.6080 5.5660 264° West 355 409 35,000  Level FlightAware ADS-B
Thu 06:08:58 AM 49.6010 5.4600 264° West 357 411 35,000 75 Level FlightAware ADS-B
Thu 06:09:33 AM 49.5910 5.3650 261° West 359 413 35,100 400 Climbing FlightAware ADS-B
Thu 06:10:13 AM 49.5900 5.2650 269° West 358 412 35,500 568 Climbing FlightAware ADS-B
Thu 06:11:08 AM 49.6240 5.1310 291° West 362 417 36,000 333 Climbing FlightAware ADS-B
Thu 06:11:43 AM 49.6450 5.0490 292° West 365 420 36,000  Level FlightAware ADS-B
Thu 06:12:23 AM 49.6740 4.9370 292° West 374 430 36,000  Level FlightAware ADS-B
Thu 06:13:13 AM 49.7050 4.8170 292° West 374 430 36,000  Level FlightAware ADS-B
Thu 06:13:53 AM 49.7290 4.7200 291° West 375 432 36,000  Level FlightAware ADS-B
Thu 06:14:38 AM 49.7590 4.6040 292° West 375 432 36,000  Level FlightAware ADS-B
Thu 06:15:08 AM 49.7780 4.5290 291° West 377 434 36,000  Level FlightAware ADS-B
Thu 06:16:58 AM 49.8470 4.2500 292° West 389 448 36,000  Level FlightAware ADS-B
Thu 06:17:00 AM 49.8586 4.2228 292° West  Level Estimated
Thu 06:17:38 AM 49.8730 4.1460 291° West 390 449 36,000  Level FlightAware ADS-B
Thu 06:18:18 AM 49.9000 4.0370 291° West 388 447 36,000  Level FlightAware ADS-B
Thu 06:19:03 AM 49.9270 3.9270 291° West 387 445 36,000  Level FlightAware ADS-B
Thu 06:19:43 AM 49.9530 3.8220 291° West 386 444 36,000  Level FlightAware ADS-B
Thu 06:20:28 AM 49.9830 3.6990 291° West 386 444 36,000  Level FlightAware ADS-B
Thu 06:21:08 AM 50.0080 3.5940 290° West 387 445 36,000  Level FlightAware ADS-B
Thu 06:21:48 AM 50.0330 3.4910 291° West 385 443 36,000  Level FlightAware ADS-B
Thu 06:22:33 AM 50.0600 3.3790 291° West 387 445 36,000  Level FlightAware ADS-B
Thu 06:23:13 AM 50.0860 3.2730 291° West 387 445 36,000  Level FlightAware ADS-B
Thu 06:23:58 AM 50.1160 3.1550 292° West 386 444 36,000  Level FlightAware ADS-B
Thu 06:24:38 AM 50.1420 3.0500 291° West 385 443 36,000  Level FlightAware ADS-B
Thu 06:25:18 AM 50.1740 2.9530 297° West 394 453 36,000  Level FlightAware ADS-B
Thu 06:26:03 AM 50.2130 2.8490 300° West 398 458 36,000  Level FlightAware ADS-B
Thu 06:26:43 AM 50.2520 2.7440 300° West 401 461 36,000  Level FlightAware ADS-B
Thu 06:27:23 AM 50.2870 2.6500 300° West 402 463 36,000  Level FlightAware ADS-B
Thu 06:28:08 AM 50.3400 2.5340 306° West 412 474 36,000  Level FlightAware ADS-B
Thu 06:28:48 AM 50.3820 2.4430 306° West 404 465 36,000  Level FlightAware ADS-B
Thu 06:29:33 AM 50.4220 2.3230 298° West 402 463 36,000  Level FlightAware ADS-B
Thu 06:30:13 AM 50.4550 2.2230 297° West 404 465 36,000  Level FlightAware ADS-B
Thu 06:30:58 AM 50.4940 2.1020 297° West 407 468 36,000  Level FlightAware ADS-B
Thu 06:31:38 AM 50.5260 2.0030 297° West 409 471 36,000  Level FlightAware ADS-B
Thu 06:32:23 AM 50.5650 1.8810 297° West 411 473 36,000  Level FlightAware ADS-B
Thu 06:32:58 AM 50.5950 1.7840 296° West 412 474 36,000  Level FlightAware ADS-B
Thu 06:33:43 AM 50.6320 1.6680 297° West 414 476 36,000  Level FlightAware ADS-B
Thu 06:34:28 AM 50.6720 1.5410 296° West 415 478 36,000  Level FlightAware ADS-B
Thu 06:35:03 AM 50.7020 1.4470 297° West 415 478 36,000  Level FlightAware ADS-B
Thu 06:35:43 AM 50.7350 1.3420 296° West 416 479 36,000  Level FlightAware ADS-B
Thu 06:36:33 AM 50.7780 1.2030 296° West 419 482 36,000  Level FlightAware ADS-B
Thu 06:37:13 AM 50.8090 1.1030 296° West 419 482 36,000  Level FlightAware ADS-B
Thu 06:37:58 AM 50.8490 0.9720 296° West 420 483 36,000  Level FlightAware ADS-B
Thu 06:38:33 AM 50.8770 0.8800 296° West 419 482 36,000  Level FlightAware ADS-B
Thu 06:39:18 AM 50.9190 0.7430 296° West 421 484 36,000  Level FlightAware ADS-B
Thu 06:39:26 AM 50.9269 0.7168 296° West 423 487 36,000  Level FlightAware ADS-B
Thu 06:39:50 AM 50.9469 0.6522 296° West 424 488 36,000  Level FlightAware ADS-B
Thu 06:40:22 AM 50.9778 0.5654 300° West 427 491 36,000  Level FlightAware ADS-B
Thu 06:40:52 AM 51.0077 0.4836 300° West 427 491 36,000  Level FlightAware ADS-B
Thu 06:41:28 AM 51.0410 0.3920 300° West 427 491 36,000  Level FlightAware ADS-B
Thu 06:41:37 AM 51.0521 0.3623 301° West 427 491 36,000  Level FlightAware ADS-B
Thu 06:42:10 AM 51.0854 0.2721 300° West 426 490 36,000  Level FlightAware ADS-B
Thu 06:42:41 AM 51.1163 0.1886 301° West 427 491 36,000  Level FlightAware ADS-B
Thu 06:43:11 AM 51.1464 0.1067 300° West 427 491 36,000  Level FlightAware ADS-B
Thu 06:43:42 AM 51.1763 0.0247 300° West 429 494 36,000  Level FlightAware ADS-B
Thu 06:43:56 AM 51.1903 -0.0148 300° West 426 490 36,000  Level FlightAware ADS-B
Thu 06:44:05 AM 51.1980 -0.0403 296° West 423 487 36,000  Level FlightAware ADS-B
Thu 06:44:37 AM 51.2212 -0.1304 292° West 422 486 36,000  Level FlightAware ADS-B
Thu 06:45:08 AM 51.2441 -0.2204 292° West 424 488 36,000  Level FlightAware ADS-B
Thu 06:45:38 AM 51.2666 -0.3089 292° West 424 488 36,000  Level FlightAware ADS-B
Thu 06:46:09 AM 51.2886 -0.3964 292° West 425 489 36,000  Level FlightAware ADS-B
Thu 06:46:39 AM 51.3109 -0.4855 292° West 426 490 36,000  Level FlightAware ADS-B
Thu 06:47:12 AM 51.3351 -0.5819 292° West 427 491 36,000  Level FlightAware ADS-B
Thu 06:47:42 AM 51.3570 -0.6699 292° West 427 491 36,000  Level FlightAware ADS-B
Thu 06:48:14 AM 51.3800 -0.7624 292° West 427 491 36,000  Level FlightAware ADS-B
Thu 06:48:46 AM 51.4028 -0.8549 292° West 427 491 36,000  Level FlightAware ADS-B
Thu 06:49:16 AM 51.4251 -0.9457 292° West 427 491 36,000  Level FlightAware ADS-B
Thu 06:49:48 AM 51.4477 -1.0377 292° West 431 496 36,000  Level FlightAware ADS-B
Thu 06:50:18 AM 51.4700 -1.1293 291° West 433 498 36,000  Level FlightAware ADS-B
Thu 06:50:37 AM 51.4836 -1.1857 291° West 433 498 36,000  Level FlightAware ADS-B
Thu 06:51:03 AM 51.4986 -1.2645 287° West 429 494 36,000  Level FlightAware ADS-B
Thu 06:51:34 AM 51.5127 -1.3595 283° West 429 494 36,000  Level FlightAware ADS-B
Thu 06:52:04 AM 51.5264 -1.4524 283° West 429 494 36,000  Level FlightAware ADS-B
Thu 06:52:35 AM 51.5404 -1.5471 283° West 428 493 36,000  Level FlightAware ADS-B
Thu 06:53:06 AM 51.5543 -1.6418 283° West 428 493 36,000  Level FlightAware ADS-B
Thu 06:53:38 AM 51.5686 -1.7410 283° West 429 494 36,000  Level FlightAware ADS-B
Thu 06:54:08 AM 51.5821 -1.8342 283° West 430 495 36,000  Level FlightAware ADS-B
Thu 06:54:38 AM 51.5956 -1.9293 283° West 431 496 36,000  Level FlightAware ADS-B
Thu 06:55:09 AM 51.6091 -2.0240 283° West 432 497 36,000  Level FlightAware ADS-B
Thu 06:55:39 AM 51.6225 -2.1184 283° West 433 498 36,000  Level FlightAware ADS-B
Thu 06:56:11 AM 51.6367 -2.2193 283° West 434 499 36,000  Level FlightAware ADS-B
Thu 06:56:46 AM 51.6519 -2.3283 283° West 437 503 36,000  Level FlightAware ADS-B
Thu 06:57:16 AM 51.6652 -2.4243 283° West 438 504 36,000  Level FlightAware ADS-B
Thu 06:57:46 AM 51.6785 -2.5205 283° West 436 502 36,000  Level FlightAware ADS-B
Thu 06:58:17 AM 51.6915 -2.6164 282° West 436 502 36,000  Level FlightAware ADS-B
Thu 06:58:47 AM 51.7047 -2.7130 282° West 436 502 36,000  Level FlightAware ADS-B
Thu 06:59:18 AM 51.7179 -2.8112 282° West 436 502 36,000  Level FlightAware ADS-B
Thu 06:59:49 AM 51.7308 -2.9073 282° West 435 501 36,000  Level FlightAware ADS-B
Thu 07:00:19 AM 51.7435 -3.0029 282° West 436 502 36,000  Level FlightAware ADS-B
Thu 07:00:53 AM 51.7577 -3.1102 282° West 437 503 36,000  Level FlightAware ADS-B
Thu 07:01:24 AM 51.7707 -3.2085 282° West 439 505 36,000  Level FlightAware ADS-B
Thu 07:02:02 AM 51.7867 -3.3318 282° West 437 503 36,000  Level FlightAware ADS-B
Thu 07:02:40 AM 51.8024 -3.4528 282° West 436 502 36,000  Level FlightAware ADS-B
Thu 07:03:11 AM 51.8148 -3.5504 282° West 437 503 36,000  Level FlightAware ADS-B
Thu 07:03:53 AM 51.8310 -3.6800 281° West 439 505 36,000  Level FlightAware ADS-B
Thu 07:04:33 AM 51.8460 -3.7990 282° West 439 505 36,000  Level FlightAware ADS-B
Thu 07:05:18 AM 51.8640 -3.9400 282° West 439 505 36,000  Level FlightAware ADS-B
Thu 07:05:58 AM 51.8810 -4.0790 281° West 440 506 36,000  Level FlightAware ADS-B
Thu 07:06:43 AM 51.8980 -4.2190 281° West 440 506 36,000  Level FlightAware ADS-B
Thu 07:07:23 AM 51.9140 -4.3480 281° West 442 509 36,000  Level FlightAware ADS-B
Thu 07:08:03 AM 51.9290 -4.4790 281° West 444 511 36,000  Level FlightAware ADS-B
Thu 07:08:48 AM 51.9470 -4.6260 281° West 444 511 36,000  Level FlightAware ADS-B
Thu 07:09:28 AM 51.9620 -4.7580 280° West 445 512 36,000  Level FlightAware ADS-B
Thu 07:10:13 AM 51.9800 -4.9070 281° West 447 514 36,000  Level FlightAware ADS-B
Thu 07:10:53 AM 52.0050 -5.0360 288° West 454 522 36,000  Level FlightAware ADS-B
Thu 07:11:33 AM 52.0390 -5.1510 296° West 459 528 36,000  Level FlightAware ADS-B
Thu 07:12:18 AM 52.0910 -5.2920 301° West 456 525 36,000  Level FlightAware ADS-B
Thu 07:12:58 AM 52.1230 -5.4160 293° West 454 522 36,000  Level FlightAware ADS-B
Thu 07:13:43 AM 52.1600 -5.5640 292° West 456 525 36,000  Level FlightAware ADS-B
Thu 07:14:23 AM 52.1910 -5.6890 292° West 458 527 36,000  Level FlightAware ADS-B
Thu 07:15:03 AM 52.2210 -5.8100 292° West 457 526 36,000  Level FlightAware ADS-B
Thu 07:15:48 AM 52.2550 -5.9510 292° West 459 528 36,000  Level FlightAware ADS-B
Thu 07:16:28 AM 52.2870 -6.0840 292° West 461 531 36,000  Level FlightAware ADS-B
Thu 07:17:08 AM 52.3180 -6.2170 291° West 460 529 36,000  Level FlightAware ADS-B
Thu 07:17:53 AM 52.3530 -6.3630 291° West 461 531 36,000  Level FlightAware ADS-B
Thu 07:18:33 AM 52.3830 -6.4920 291° West 461 531 36,000  Level FlightAware ADS-B
Thu 07:19:13 AM 52.4130 -6.6200 291° West 459 528 36,000  Level FlightAware ADS-B
Thu 07:19:58 AM 52.4490 -6.7750 291° West 457 526 36,000  Level FlightAware ADS-B
Thu 07:20:38 AM 52.4780 -6.9000 291° West 456 525 36,000  Level FlightAware ADS-B
Thu 07:21:23 AM 52.5120 -7.0490 291° West 456 525 36,000  Level FlightAware ADS-B
Thu 07:22:03 AM 52.5410 -7.1780 290° West 457 526 36,000  Level FlightAware ADS-B
Thu 07:22:48 AM 52.5730 -7.3190 291° West 455 524 36,000  Level FlightAware ADS-B
Thu 07:23:28 AM 52.6020 -7.4500 290° West 452 520 36,000  Level FlightAware ADS-B
Thu 07:24:08 AM 52.6310 -7.5800 290° West 452 520 36,000  Level FlightAware ADS-B
Thu 07:24:53 AM 52.6630 -7.7230 290° West 451 519 36,000  Level FlightAware ADS-B
Thu 07:25:33 AM 52.6910 -7.8510 290° West 452 520 36,000  Level FlightAware ADS-B
Thu 07:26:18 AM 52.7210 -7.9900 290° West 454 522 36,000  Level FlightAware ADS-B
Thu 07:26:48 AM 52.7430 -8.0900 290° West 456 525 36,000  Level FlightAware ADS-B
Thu 07:27:38 AM 52.7780 -8.2520 290° West 458 527 36,000  Level FlightAware ADS-B
Thu 07:28:23 AM 52.8100 -8.3980 290° West 459 528 36,000  Level FlightAware ADS-B
Thu 07:30:00 AM 52.8478 -8.7011 282° West  Level Estimated
Thu 07:30:08 AM 52.8820 -8.7410 282° West 457 526 36,000  Level FlightAware ADS-B
Thu 07:31:23 AM 52.9340 -8.9880 289° West 455 524 36,000  Level FlightAware ADS-B
Thu 07:32:03 AM 52.9610 -9.1210 289° West 457 526 36,000  Level FlightAware ADS-B
Thu 07:32:48 AM 52.9920 -9.2700 289° West 458 527 36,000  Level FlightAware ADS-B
Thu 07:33:28 AM 53.0210 -9.4140 289° West 460 529 36,000  Level FlightAware ADS-B
Thu 07:34:13 AM 53.0500 -9.5580 289° West 461 531 36,000  Level FlightAware ADS-B
Thu 07:34:53 AM 53.0770 -9.6910 289° West 460 529 36,000  Level FlightAware ADS-B
Thu 07:35:33 AM 53.1050 -9.8280 289° West 459 528 36,000  Level FlightAware ADS-B
Thu 07:36:13 AM 53.1300 -9.9540 288° West 457 526 36,000  Level FlightAware ADS-B
Thu 07:36:58 AM 53.1600 -10.1090 288° West 458 527 36,000  Level FlightAware ADS-B
Thu 07:37:33 AM 53.1850 -10.2360 288° West 459 528 36,000  Level FlightAware ADS-B
Thu 07:38:23 AM 53.2140 -10.3850 288° West 462 532 36,000  Level FlightAware ADS-B
Thu 07:39:03 AM 53.2420 -10.5310 288° West 463 533 36,000  Level FlightAware ADS-B
Thu 07:39:48 AM 53.2710 -10.6810 288° West 461 531 36,000  Level FlightAware ADS-B
Thu 07:40:28 AM 53.2960 -10.8130 288° West 463 533 36,000  Level FlightAware ADS-B
Thu 07:41:13 AM 53.3260 -10.9730 287° West 461 531 36,000  Level FlightAware ADS-B
Thu 07:41:53 AM 53.3500 -11.1010 287° West 462 532 36,000  Level FlightAware ADS-B
Thu 07:42:33 AM 53.3760 -11.2440 287° West 464 534 36,000  Level FlightAware ADS-B
Thu 07:43:18 AM 53.4050 -11.4000 287° West 463 533 36,000  Level FlightAware ADS-B
Thu 07:43:53 AM 53.4270 -11.5220 287° West 464 534 36,000  Level FlightAware ADS-B
Thu 07:44:38 AM 53.4550 -11.6780 287° West 463 533 36,000  Level FlightAware ADS-B
Thu 07:45:23 AM 53.4830 -11.8330 287° West 464 534 36,000  Level FlightAware ADS-B
Thu 07:46:03 AM 53.5080 -11.9730 287° West 465 535 36,000  Level FlightAware ADS-B
Thu 07:46:48 AM 53.5350 -12.1250 287° West 465 535 36,000  Level FlightAware ADS-B
Thu 07:47:28 AM 53.5590 -12.2650 286° West 463 533 36,000  Level FlightAware ADS-B
Thu 07:48:13 AM 53.5870 -12.4220 287° West 465 535 36,000  Level FlightAware ADS-B
Thu 07:48:53 AM 53.6100 -12.5570 286° West 466 536 36,000 192 Level FlightAware ADS-B
Thu 07:50:18 AM 53.6600 -12.8540 286° West 462 532 36,400 473 Climbing FlightAware ADS-B
Thu 07:51:38 AM 53.7040 -13.1140 286° West 459 528 37,300 624 Climbing FlightAware ADS-B
Thu 07:52:23 AM 53.7310 -13.2770 286° West 455 524 37,700 494 Climbing FlightAware ADS-B
Thu 07:53:03 AM 53.7530 -13.4140 285° West 456 525 38,000 212 Climbing FlightAware ADS-B
Thu 07:53:48 AM 53.7790 -13.5740 285° West 458 527 38,000  Level FlightAware ADS-B
Thu 07:54:28 AM 53.8020 -13.7120 286° West 460 529 38,000  Level FlightAware ADS-B
Thu 07:55:08 AM 53.8230 -13.8490 285° West 460 529 38,000  Level FlightAware ADS-B
Thu 07:56:08 AM 53.8560 -14.0560 285° West 460 529 38,000  Level FlightAware ADS-B
Thu 07:57:33 AM 53.9020 -14.3490 285° West 461 531 38,000  Level FlightAware ADS-B
Thu 07:58:13 AM 53.9210 -14.4830 284° West 461 531 38,000  Level FlightAware ADS-B
Thu 07:58:53 AM 53.9390 -14.6030 284° West 461 531 38,000  Level FlightAware ADS-B
Thu 07:59:43 AM 53.9610 -14.7520 284° West 461 531 38,000  Level FlightAware ADS-B
Thu 08:00:23 AM 53.9780 -14.8720 284° West 461 531 38,000  Level FlightAware ADS-B
Thu 08:01:03 AM 53.9960 -14.9910 284° West 461 531 38,000  Level FlightAware ADS-B
Thu 08:01:43 AM 54.0130 -15.1110 284° West 461 531 38,000  Level FlightAware ADS-B
Thu 08:02:23 AM 54.0310 -15.2310 284° West 461 531 38,000  Level FlightAware ADS-B
Thu 08:03:03 AM 54.0490 -15.3510 284° West 461 531 38,000  Level FlightAware ADS-B
Thu 08:03:53 AM 54.0700 -15.5010 283° West 461 531 38,000  Level FlightAware ADS-B
Thu 08:04:33 AM 54.0880 -15.6200 285° West 461 531 38,000  Level FlightAware ADS-B
Thu 08:05:13 AM 54.1060 -15.7400 284° West 461 531 38,000  Level FlightAware ADS-B
Thu 08:05:53 AM 54.1230 -15.8600 284° West 461 531 38,000  Level FlightAware ADS-B
Thu 08:06:43 AM 54.1450 -16.0110 284° West 461 531 38,000  Level FlightAware ADS-B
Thu 08:07:23 AM 54.1620 -16.1310 284° West 461 531 38,000  Level FlightAware ADS-B
Thu 08:09:00 AM 54.1780 -16.4619 275° West  Level Estimated
Thu 08:10:00 AM 54.1874 -16.6668 275° West  Level Estimated
Thu 08:11:00 AM 54.1965 -16.8717 274° West  Level Estimated
Thu 08:12:00 AM 54.2053 -17.0767 274° West  Level Estimated
Thu 08:13:00 AM 54.2137 -17.2818 274° West  Level Estimated
Thu 08:14:00 AM 54.2217 -17.4870 274° West  Level Estimated
Thu 08:15:00 AM 54.2294 -17.6922 274° West  Level Estimated
Thu 08:16:00 AM 54.2368 -17.8976 274° West  Level Estimated
Thu 08:17:00 AM 54.2438 -18.1029 273° West  Level Estimated
Thu 08:18:00 AM 54.2504 -18.3084 273° West  Level Estimated
Thu 08:19:00 AM 54.2567 -18.5140 273° West  Level Estimated
Thu 08:20:00 AM 54.2627 -18.7195 273° West  Level Estimated
Thu 08:21:00 AM 54.2683 -18.9252 273° West  Level Estimated
Thu 08:22:00 AM 54.2735 -19.1309 273° West  Level Estimated
Thu 08:23:00 AM 54.2784 -19.3367 272° West  Level Estimated
Thu 08:24:00 AM 54.2830 -19.5425 272° West  Level Estimated
Thu 08:25:00 AM 54.2872 -19.7483 272° West  Level Estimated
Thu 08:25:58 AM 55.0000 -20.0000 274° West 438 504 38,000  Level ETMS Enhanced Traffic Management System
Thu 08:26:00 AM 54.2910 -19.9542 272° West  Level Estimated
Thu 08:27:00 AM 54.2944 -20.1551 272° West  Level Estimated
Thu 08:28:00 AM 54.2975 -20.3561 272° West  Level Estimated
Thu 08:29:00 AM 54.3003 -20.5571 271° West  Level Estimated
Thu 08:30:00 AM 54.3027 -20.7582 271° West  Level Estimated
Thu 08:31:00 AM 54.3048 -20.9592 271° West  Level Estimated
Thu 08:32:00 AM 55.0520 -21.4863 273° West 438 504 38,000  Level FlightAware Transoceanic
Thu 08:33:00 AM 55.0579 -21.6989 273° West 438 504 38,000  Level FlightAware Transoceanic
Thu 08:34:00 AM 55.0635 -21.9116 273° West 438 504 38,000  Level FlightAware Transoceanic
Thu 08:35:00 AM 55.0687 -22.1244 272° West 438 504 38,000  Level FlightAware Transoceanic
Thu 08:36:00 AM 55.0735 -22.3372 272° West 438 504 38,000  Level FlightAware Transoceanic
Thu 08:37:00 AM 55.0780 -22.5500 272° West 438 504 38,000  Level FlightAware Transoceanic
Thu 08:38:00 AM 55.0821 -22.7629 272° West 438 504 38,000  Level FlightAware Transoceanic
Thu 08:39:00 AM 55.0858 -22.9758 272° West 438 504 38,000  Level FlightAware Transoceanic
Thu 08:40:00 AM 55.0891 -23.1888 271° West 438 504 38,000  Level FlightAware Transoceanic
Thu 08:41:00 AM 55.0921 -23.4018 271° West 438 504 38,000  Level FlightAware Transoceanic
Thu 08:42:00 AM 55.0947 -23.6148 271° West 438 504 38,000  Level FlightAware Transoceanic
Thu 08:43:00 AM 55.0969 -23.8279 271° West 438 504 38,000  Level FlightAware Transoceanic
Thu 08:44:00 AM 55.0988 -24.0410 271° West 438 504 38,000  Level FlightAware Transoceanic
Thu 08:45:00 AM 55.1003 -24.2541 271° West 438 504 38,000  Level FlightAware Transoceanic
Thu 08:46:00 AM 55.1014 -24.4672 270° West 438 504 38,000  Level FlightAware Transoceanic
Thu 08:47:00 AM 55.1021 -24.6803 270° West 438 504 38,000  Level FlightAware Transoceanic
Thu 08:48:00 AM 55.1025 -24.8934 270° West 438 504 38,000  Level FlightAware Transoceanic
Thu 08:49:00 AM 55.1025 -25.1066 270° West 438 504 38,000  Level FlightAware Transoceanic
Thu 08:50:00 AM 55.1021 -25.3197 270° West 438 504 38,000  Level FlightAware Transoceanic
Thu 08:51:00 AM 55.1014 -25.5328 270° West 438 504 38,000  Level FlightAware Transoceanic
Thu 08:52:00 AM 55.1003 -25.7459 269° West 438 504 38,000  Level FlightAware Transoceanic
Thu 08:53:00 AM 55.0988 -25.9590 269° West 438 504 38,000  Level FlightAware Transoceanic
Thu 08:54:00 AM 55.0969 -26.1721 269° West 438 504 38,000  Level FlightAware Transoceanic
Thu 08:55:00 AM 55.0947 -26.3852 269° West 438 504 38,000  Level FlightAware Transoceanic
Thu 08:56:00 AM 55.0921 -26.5982 269° West 438 504 38,000  Level FlightAware Transoceanic
Thu 08:57:00 AM 55.0891 -26.8112 269° West 438 504 38,000  Level FlightAware Transoceanic
Thu 08:58:00 AM 55.0858 -27.0242 268° West 438 504 38,000  Level FlightAware Transoceanic
Thu 08:59:00 AM 55.0821 -27.2371 268° West 438 504 38,000  Level FlightAware Transoceanic
Thu 09:00:00 AM 55.0780 -27.4500 268° West 438 504 38,000  Level FlightAware Transoceanic
Thu 09:01:00 AM 55.0735 -27.6628 268° West 438 504 38,000  Level FlightAware Transoceanic
Thu 09:02:00 AM 55.0687 -27.8756 268° West 438 504 38,000  Level FlightAware Transoceanic
Thu 09:03:00 AM 55.0635 -28.0884 267° West 438 504 38,000  Level FlightAware Transoceanic
Thu 09:04:00 AM 55.0579 -28.3011 267° West 438 504 38,000  Level FlightAware Transoceanic
Thu 09:05:00 AM 55.0520 -28.5137 267° West 438 504 38,000  Level FlightAware Transoceanic
Thu 09:06:00 AM 55.0457 -28.7262 267° West 438 504 38,000  Level FlightAware Transoceanic
Thu 09:07:00 AM 55.0390 -28.9387 267° West 438 504 38,000  Level FlightAware Transoceanic
Thu 09:08:00 AM 55.0319 -29.1511 267° West 438 504 38,000  Level FlightAware Transoceanic
Thu 09:09:00 AM 55.0245 -29.3635 266° West 438 504 38,000  Level FlightAware Transoceanic
Thu 09:10:00 AM 55.0167 -29.5757 266° West 438 504 38,000  Level FlightAware Transoceanic
Thu 09:11:00 AM 55.0085 -29.7879 266° West 438 504 38,000  Level FlightAware Transoceanic
Thu 09:12:00 AM 55.0003 -29.9920 266° West  Level FlightAware Approximate
Thu 09:13:00 AM 54.9917 -30.1960 266° West  Level FlightAware Approximate
Thu 09:14:00 AM 55.0076 -30.1877 274° West  Level FlightAware Approximate
Thu 09:15:00 AM 55.0155 -30.3914 274° West  Level FlightAware Approximate
Thu 09:16:00 AM 55.0230 -30.5953 274° West  Level FlightAware Approximate
Thu 09:17:00 AM 55.0302 -30.7992 274° West  Level FlightAware Approximate
Thu 09:18:00 AM 55.0371 -31.0032 273° West  Level FlightAware Approximate
Thu 09:19:00 AM 55.0436 -31.2072 273° West  Level FlightAware Approximate
Thu 09:20:00 AM 55.0498 -31.4114 273° West  Level FlightAware Approximate
Thu 09:21:00 AM 55.0556 -31.6155 273° West  Level FlightAware Approximate
Thu 09:22:00 AM 55.0611 -31.8198 273° West  Level FlightAware Approximate
Thu 09:23:00 AM 55.0663 -32.0241 273° West  Level FlightAware Approximate
Thu 09:24:00 AM 55.0711 -32.2284 272° West  Level FlightAware Approximate
Thu 09:25:00 AM 55.0756 -32.4328 272° West  Level FlightAware Approximate
Thu 09:26:00 AM 55.0797 -32.6372 272° West  Level FlightAware Approximate
Thu 09:27:00 AM 55.0835 -32.8417 272° West  Level FlightAware Approximate
Thu 09:28:00 AM 55.0869 -33.0462 272° West  Level FlightAware Approximate
Thu 09:29:00 AM 55.0900 -33.2508 272° West  Level FlightAware Approximate
Thu 09:30:00 AM 55.0928 -33.4553 271° West  Level FlightAware Approximate
Thu 09:31:00 AM 55.0952 -33.6599 271° West  Level FlightAware Approximate
Thu 09:32:00 AM 55.0973 -33.8646 271° West  Level FlightAware Approximate
Thu 09:33:00 AM 55.0990 -34.0692 271° West  Level FlightAware Approximate
Thu 09:34:00 AM 55.1004 -34.2738 271° West  Level FlightAware Approximate
Thu 09:35:00 AM 55.1015 -34.4785 271° West  Level FlightAware Approximate
Thu 09:36:00 AM 55.1022 -34.6832 270° West  Level FlightAware Approximate
Thu 09:37:00 AM 55.1025 -34.8879 270° West  Level FlightAware Approximate
Thu 09:38:00 AM 55.1025 -35.0926 270° West  Level FlightAware Approximate
Thu 09:39:00 AM 55.1022 -35.2973 270° West  Level FlightAware Approximate
Thu 09:40:00 AM 55.1015 -35.5019 270° West  Level FlightAware Approximate
Thu 09:41:00 AM 55.1005 -35.7066 270° West  Level FlightAware Approximate
Thu 09:42:00 AM 55.0992 -35.9113 269° West  Level FlightAware Approximate
Thu 09:43:00 AM 55.0975 -36.1159 269° West  Level FlightAware Approximate
Thu 09:44:00 AM 55.0954 -36.3206 269° West  Level FlightAware Approximate
Thu 09:45:00 AM 55.0930 -36.5252 269° West  Level FlightAware Approximate
Thu 09:46:00 AM 55.0903 -36.7297 269° West  Level FlightAware Approximate
Thu 09:47:00 AM 55.0872 -36.9343 269° West  Level FlightAware Approximate
Thu 09:48:00 AM 55.0838 -37.1388 268° West  Level FlightAware Approximate
Thu 09:49:00 AM 55.0801 -37.3433 268° West  Level FlightAware Approximate
Thu 09:50:00 AM 55.0760 -37.5477 268° West  Level FlightAware Approximate
Thu 09:51:00 AM 55.0715 -37.7521 268° West  Level FlightAware Approximate
Thu 09:52:00 AM 55.0667 -37.9565 268° West  Level FlightAware Approximate
Thu 09:53:00 AM 55.0616 -38.1608 268° West  Level FlightAware Approximate
Thu 09:54:00 AM 55.0562 -38.3650 267° West  Level FlightAware Approximate
Thu 09:55:00 AM 55.0504 -38.5692 267° West  Level FlightAware Approximate
Thu 09:56:00 AM 55.0442 -38.7733 267° West  Level FlightAware Approximate
Thu 09:57:00 AM 55.0377 -38.9774 267° West  Level FlightAware Approximate
Thu 09:58:00 AM 55.0309 -39.1814 267° West  Level FlightAware Approximate
Thu 09:59:00 AM 55.0237 -39.3853 267° West  Level FlightAware Approximate
Thu 10:00:00 AM 55.0162 -39.5891 266° West  Level FlightAware Approximate
Thu 10:01:00 AM 55.0084 -39.7925 266° West  Level FlightAware Approximate
Thu 10:02:00 AM 55.0001 -39.9966 266° West  Level FlightAware Approximate
Thu 10:03:00 AM 55.0081 -40.2007 274° West  Level FlightAware Approximate
Thu 10:04:00 AM 55.0160 -40.4048 274° West  Level FlightAware Approximate
Thu 10:05:00 AM 55.0235 -40.6091 274° West  Level FlightAware Approximate
Thu 10:06:00 AM 55.0307 -40.8134 274° West  Level FlightAware Approximate
Thu 10:07:00 AM 55.0376 -41.0178 273° West  Level FlightAware Approximate
Thu 10:08:00 AM 55.0441 -41.2223 273° West  Level FlightAware Approximate
Thu 10:09:00 AM 55.0502 -41.4268 273° West  Level FlightAware Approximate
Thu 10:10:00 AM 55.0561 -41.6314 273° West  Level FlightAware Approximate
Thu 10:11:00 AM 55.0615 -41.8360 273° West  Level FlightAware Approximate
Thu 10:12:00 AM 55.0667 -42.0407 273° West  Level FlightAware Approximate
Thu 10:13:00 AM 55.0715 -42.2454 272° West  Level FlightAware Approximate
Thu 10:14:00 AM 55.0759 -42.4502 272° West  Level FlightAware Approximate
Thu 10:15:00 AM 55.0800 -42.6551 272° West  Level FlightAware Approximate
Thu 10:16:00 AM 55.0838 -42.8600 272° West  Level FlightAware Approximate
Thu 10:17:00 AM 55.0872 -43.0649 272° West  Level FlightAware Approximate
Thu 10:18:00 AM 55.0903 -43.2698 272° West  Level FlightAware Approximate
Thu 10:19:00 AM 55.0930 -43.4748 271° West  Level FlightAware Approximate
Thu 10:20:00 AM 55.0954 -43.6798 271° West  Level FlightAware Approximate
Thu 10:21:00 AM 55.0975 -43.8848 271° West  Level FlightAware Approximate
Thu 10:22:00 AM 55.0992 -44.0899 271° West  Level FlightAware Approximate
Thu 10:23:00 AM 55.1005 -44.2949 271° West  Level FlightAware Approximate
Thu 10:24:00 AM 55.1016 -44.5000 271° West  Level FlightAware Approximate
Thu 10:25:00 AM 55.1022 -44.7051 270° West  Level FlightAware Approximate
Thu 10:26:00 AM 55.1025 -44.9102 270° West  Level FlightAware Approximate
Thu 10:27:00 AM 55.1025 -45.1153 270° West  Level FlightAware Approximate
Thu 10:28:00 AM 55.1021 -45.3204 270° West  Level FlightAware Approximate
Thu 10:29:00 AM 55.1014 -45.5255 270° West  Level FlightAware Approximate
Thu 10:30:00 AM 55.1004 -45.7305 270° West  Level FlightAware Approximate
Thu 10:31:00 AM 55.0990 -45.9356 269° West  Level FlightAware Approximate
Thu 10:32:00 AM 55.0973 -46.1406 269° West  Level FlightAware Approximate
Thu 10:33:00 AM 55.0952 -46.3456 269° West  Level FlightAware Approximate
Thu 10:34:00 AM 55.0927 -46.5507 269° West  Level FlightAware Approximate
Thu 10:35:00 AM 55.0900 -46.7556 269° West  Level FlightAware Approximate
Thu 10:36:00 AM 55.0868 -46.9606 269° West  Level FlightAware Approximate
Thu 10:37:00 AM 55.0834 -47.1655 268° West  Level FlightAware Approximate
Thu 10:38:00 AM 55.0796 -47.3704 268° West  Level FlightAware Approximate
Thu 10:39:00 AM 55.0754 -47.5752 268° West  Level FlightAware Approximate
Thu 10:40:00 AM 55.0709 -47.7800 268° West  Level FlightAware Approximate
Thu 10:41:00 AM 55.0661 -47.9847 268° West  Level FlightAware Approximate
Thu 10:42:00 AM 55.0609 -48.1894 268° West  Level FlightAware Approximate
Thu 10:43:00 AM 55.0554 -48.3941 267° West  Level FlightAware Approximate
Thu 10:44:00 AM 55.0495 -48.5986 267° West  Level FlightAware Approximate
Thu 10:45:00 AM 55.0433 -48.8032 267° West  Level FlightAware Approximate
Thu 10:46:00 AM 55.0367 -49.0076 267° West  Level FlightAware Approximate
Thu 10:47:00 AM 55.0298 -49.2120 267° West  Level FlightAware Approximate
Thu 10:48:00 AM 55.0226 -49.4163 267° West  Level FlightAware Approximate
Thu 10:49:00 AM 55.0150 -49.6205 266° West  Level FlightAware Approximate
Thu 10:50:00 AM 55.0071 -49.8247 266° West  Level FlightAware Approximate
Thu 10:51:00 AM 54.9938 -50.0267 248° West  Level FlightAware Approximate
Thu 10:52:00 AM 54.9497 -50.2162 248° West  Level FlightAware Approximate
Thu 10:53:00 AM 54.9054 -50.4052 248° West  Level FlightAware Approximate
Thu 10:54:00 AM 54.8607 -50.5938 248° West  Level FlightAware Approximate
Thu 10:55:00 AM 54.8158 -50.7820 248° West  Level FlightAware Approximate
Thu 10:56:00 AM 54.7705 -50.9698 247° West  Level FlightAware Approximate
Thu 10:57:00 AM 54.7250 -51.1572 247° West  Level FlightAware Approximate
Thu 10:58:00 AM 54.6792 -51.3441 247° West  Level FlightAware Approximate
Thu 10:59:00 AM 54.6331 -51.5306 247° West  Level FlightAware Approximate
Thu 11:00:00 AM 54.5867 -51.7167 247° West  Level FlightAware Approximate
Thu 11:01:00 AM 54.5400 -51.9024 247° West  Level FlightAware Approximate
Thu 11:02:00 AM 54.4930 -52.0876 246° West  Level FlightAware Approximate
Thu 11:03:00 AM 54.4458 -52.2724 246° West  Level FlightAware Approximate
Thu 11:04:00 AM 54.3983 -52.4568 246° West  Level FlightAware Approximate
Thu 11:05:00 AM 54.3505 -52.6408 246° West  Level FlightAware Approximate
Thu 11:05:39 AM 54.0333 -54.2500 245° Southwest 470 541 38,000  Level Gander Center
Thu 11:06:00 AM 54.3024 -52.8243 246° West  Level FlightAware Approximate
Thu 11:06:39 AM 53.9833 -54.4500 247° West 470 541 38,000  Level Gander Center
Thu 11:07:00 AM 54.2540 -53.0074 246° West  Level FlightAware Approximate
Thu 11:07:39 AM 53.9333 -54.6667 249° West 470 541 38,000  Level Gander Center
Thu 11:08:00 AM 54.2054 -53.1901 246° West  Level FlightAware Approximate
Thu 11:08:39 AM 53.8833 -54.8667 247° West 470 541 38,000  Level Gander Center
Thu 11:09:00 AM 54.1565 -53.3723 245° Southwest  Level FlightAware Approximate
Thu 11:09:39 AM 53.8000 -55.0500 232° Southwest 470 541 38,000  Level Gander Center
Thu 11:10:00 AM 54.1074 -53.5538 245° Southwest  Level FlightAware Approximate
Thu 11:10:39 AM 53.7500 -55.2500 247° West 460 529 38,000  Level Gander Center
Thu 11:11:39 AM 53.6833 -55.4333 239° Southwest 460 529 38,000  Level Gander Center
Thu 11:12:39 AM 53.6167 -55.6167 239° Southwest 480 552 38,000  Level Gander Center
Thu 11:13:02 AM 53.5833 -55.6833 230° Southwest 480 552 38,000  Level Moncton Center
Thu 11:13:39 AM 53.5333 -55.8167 238° Southwest 470 541 38,000  Level Gander Center
Thu 11:14:02 AM 53.5167 -55.9000 251° West 470 541 38,000  Level Moncton Center
Thu 11:15:02 AM 53.4667 -56.0833 245° Southwest 470 541 38,000  Level Moncton Center
Thu 11:15:39 AM 53.4000 -56.2000 226° Southwest 470 541 38,000  Level Gander Center
Thu 11:16:02 AM 53.3833 -56.2500 241° Southwest 470 541 38,000  Level Moncton Center
Thu 11:17:02 AM 53.3167 -56.4333 239° Southwest 470 541 38,000  Level Moncton Center
Thu 11:18:02 AM 53.2500 -56.6167 239° Southwest 470 541 38,000  Level Moncton Center
Thu 11:19:02 AM 53.1667 -56.8333 237° Southwest 470 541 38,000  Level Moncton Center
Thu 11:20:02 AM 53.1167 -57.0000 243° Southwest 470 541 38,000  Level Moncton Center
Thu 11:20:39 AM 53.0667 -57.1000 230° Southwest 470 541 38,000  Level Gander Center
Thu 11:21:02 AM 53.0500 -57.1833 252° West 470 541 38,000  Level Moncton Center
Thu 11:22:02 AM 52.9667 -57.3667 233° Southwest 460 529 38,000  Level Moncton Center
Thu 11:22:39 AM 52.9167 -57.4833 235° Southwest 460 529 38,000  Level Gander Center
Thu 11:23:39 AM 52.8333 -57.6333 227° Southwest 460 529 38,000  Level Gander Center
Thu 11:24:39 AM 52.7667 -57.8000 237° Southwest 460 529 38,000  Level Gander Center
Thu 11:25:39 AM 52.6833 -57.9667 231° Southwest 460 529 38,000  Level Gander Center
Thu 11:26:02 AM 52.6500 -58.0167 222° Southwest 460 529 38,000  Level Moncton Center
Thu 11:26:39 AM 52.6000 -58.1500 238° Southwest 460 529 38,000  Level Gander Center
Thu 11:27:39 AM 52.5167 -58.3167 231° Southwest 460 529 38,000  Level Gander Center
Thu 11:28:39 AM 52.4500 -58.4833 237° Southwest 460 529 38,000  Level Gander Center
Thu 11:29:39 AM 52.3667 -58.6500 231° Southwest 460 529 38,000  Level Gander Center
Thu 11:30:39 AM 52.2833 -58.8000 228° Southwest 460 529 38,000  Level Gander Center
Thu 11:31:39 AM 52.2000 -58.9667 231° Southwest 460 529 38,000  Level Gander Center
Thu 11:32:39 AM 52.1167 -59.1333 231° Southwest 460 529 38,000  Level Gander Center
Thu 11:33:39 AM 52.0500 -59.3000 237° Southwest 460 529 38,000  Level Gander Center
Thu 11:34:39 AM 51.9667 -59.4667 231° Southwest 460 529 38,000  Level Gander Center
Thu 11:35:39 AM 51.8833 -59.6000 225° Southwest 460 529 38,000  Level Gander Center
Thu 11:36:02 AM 51.8500 -59.6833 237° Southwest 460 529 38,000  Level Moncton Center
Thu 11:37:02 AM 51.7667 -59.8333 228° Southwest 460 529 38,000  Level Moncton Center
Thu 11:37:39 AM 51.7167 -59.9333 231° Southwest 460 529 38,000  Level Gander Center
Thu 11:38:39 AM 51.6333 -60.1000 231° Southwest 450 518 38,000  Level Gander Center
Thu 11:39:39 AM 51.5500 -60.2333 225° Southwest 450 518 38,000  Level Gander Center
Thu 11:40:39 AM 51.4667 -60.4000 231° Southwest 460 529 38,000  Level Gander Center
Thu 11:41:02 AM 51.4500 -60.4500 242° Southwest 460 529 38,000  Level Moncton Center
Thu 11:42:02 AM 51.3500 -60.6167 226° Southwest 460 529 38,000  Level Moncton Center
Thu 11:42:39 AM 51.3167 -60.7167 242° Southwest 460 529 38,000  Level Gander Center
Thu 11:43:02 AM 51.2833 -60.7833 231° Southwest 460 529 38,000  Level Moncton Center
Thu 11:43:39 AM 51.2167 -60.8833 223° Southwest 450 518 38,000  Level Gander Center
Thu 11:44:39 AM 51.1500 -61.0167 231° Southwest 460 529 38,000  Level Gander Center
Thu 11:45:39 AM 51.0500 -61.1833 226° Southwest 460 529 38,000  Level Gander Center
Thu 11:46:39 AM 50.9833 -61.3333 235° Southwest 450 518 38,000  Level Gander Center
Thu 11:47:39 AM 50.9000 -61.4667 225° Southwest 450 518 38,000  Level Gander Center
Thu 11:48:02 AM 50.8667 -61.5333 232° Southwest 450 518 38,000  Level Moncton Center
Thu 11:48:39 AM 50.8167 -61.6333 232° Southwest 450 518 38,000  Level Gander Center
Thu 11:49:39 AM 50.7333 -61.7833 229° Southwest 450 518 38,000  Level Gander Center
Thu 11:50:39 AM 50.6500 -61.9333 229° Southwest 440 506 38,000  Level Gander Center
Thu 11:51:02 AM 50.6167 -61.9667 212° Southwest 450 518 38,000  Level Moncton Center
Thu 11:51:39 AM 50.5833 -62.0667 242° Southwest 450 518 38,000  Level Gander Center
Thu 11:52:39 AM 50.5000 -62.2333 232° Southwest 440 506 38,000  Level Gander Center
Thu 11:53:39 AM 50.4167 -62.3500 222° Southwest 450 518 38,000  Level Gander Center
Thu 11:54:39 AM 50.3333 -62.5167 232° Southwest 440 506 38,000  Level Gander Center
Thu 11:55:39 AM 50.2500 -62.6667 229° Southwest 450 518 38,000  Level Gander Center
Thu 11:56:39 AM 50.1833 -62.8000 232° Southwest 440 506 38,000  Level Gander Center
Thu 11:57:39 AM 50.0833 -62.9500 224° Southwest 450 518 38,000  Level Gander Center
Thu 11:58:02 AM 50.0500 -62.9833 213° Southwest 440 506 38,000  Level Moncton Center
Thu 11:59:02 AM 49.9667 -63.1500 232° Southwest 440 506 38,000  Level Moncton Center
Thu 11:59:39 AM 49.9167 -63.2333 227° Southwest 440 506 38,000  Level Gander Center
Thu 12:00:39 PM 49.8500 -63.3833 235° Southwest 440 506 38,000  Level Gander Center
Thu 12:01:02 PM 49.8000 -63.4333 213° Southwest 430 495 38,000  Level Moncton Center
Thu 12:02:02 PM 49.7167 -63.5667 226° Southwest 430 495 38,000  Level Moncton Center
Thu 12:02:39 PM 49.6833 -63.6667 243° Southwest 430 495 38,000  Level Gander Center
Thu 12:03:39 PM 49.6000 -63.7833 222° Southwest 430 495 38,000  Level Gander Center
Thu 12:04:02 PM 49.5667 -63.8333 224° Southwest 430 495 38,000  Level Moncton Center
Thu 12:05:02 PM 49.4833 -63.9667 226° Southwest 430 495 38,000  Level Moncton Center
Thu 12:06:02 PM 49.4000 -64.1167 230° Southwest 430 495 38,000  Level Moncton Center
Thu 12:07:02 PM 49.3167 -64.2500 226° Southwest 430 495 38,000  Level Moncton Center
Thu 12:08:02 PM 49.2333 -64.3667 222° Southwest 430 495 38,000  Level Moncton Center
Thu 12:08:40 PM 49.1833 -64.4500 227° Southwest 430 495 38,000  Level Gander Center
Thu 12:09:40 PM 49.1000 -64.6000 230° Southwest 430 495 38,000  Level Gander Center
Thu 12:10:02 PM 49.0833 -64.6333 233° Southwest 430 495 38,000  Level Moncton Center
Thu 12:11:02 PM 48.9833 -64.7833 225° Southwest 430 495 38,000  Level Moncton Center
Thu 12:12:02 PM 48.9167 -64.9000 229° Southwest 420 483 38,000  Level Moncton Center
Thu 12:13:02 PM 48.8333 -65.0333 227° Southwest 420 483 38,000  Level Moncton Center
Thu 12:14:02 PM 48.7500 -65.1667 227° Southwest 420 483 38,000  Level Moncton Center
Thu 12:15:02 PM 48.6667 -65.2833 223° Southwest 420 483 38,000  Level Moncton Center
Thu 12:16:02 PM 48.6000 -65.4167 233° Southwest 420 483 38,000  Level Moncton Center
Thu 12:17:02 PM 48.5167 -65.5667 230° Southwest 410 472 38,000  Level Moncton Center
Thu 12:18:02 PM 48.4333 -65.6667 219° Southwest 410 472 38,000  Level Moncton Center
Thu 12:19:02 PM 48.3667 -65.7833 229° Southwest 410 472 38,000  Level Moncton Center
Thu 12:20:02 PM 48.2833 -65.9000 223° Southwest 400 460 38,000  Level Moncton Center
Thu 12:21:02 PM 48.2000 -66.0333 227° Southwest 400 460 38,000  Level Moncton Center
Thu 12:22:02 PM 48.1167 -66.1500 223° Southwest 400 460 38,000  Level Moncton Center
Thu 12:23:02 PM 48.0500 -66.2833 233° Southwest 390 449 38,000  Level Moncton Center
Thu 12:24:02 PM 47.9833 -66.3667 220° Southwest 380 437 38,000  Level Moncton Center
Thu 12:25:02 PM 47.9000 -66.5000 227° Southwest 380 437 38,000  Level Moncton Center
Thu 12:26:02 PM 47.8333 -66.6000 225° Southwest 370 426 38,000 -50 Level Moncton Center
Thu 12:27:02 PM 47.7667 -66.7167 230° Southwest 380 437 37,900 -450 Descending Moncton Center
Thu 12:28:02 PM 47.6833 -66.8333 223° Southwest 380 437 37,100 -850 Descending Moncton Center
Thu 12:29:02 PM 47.6000 -66.9333 219° Southwest 380 437 36,200 -550 Descending Moncton Center
Thu 12:30:02 PM 47.5333 -67.0500 230° Southwest 370 426 36,000 -100 Descending Moncton Center
Thu 12:31:02 PM 47.4667 -67.1500 225° Southwest 370 426 36,000  Level Moncton Center
Thu 12:32:02 PM 47.3833 -67.2667 223° Southwest 380 437 36,000 -400 Level Moncton Center
Thu 12:33:02 PM 47.3000 -67.3667 219° Southwest 400 460 35,200 -774 Descending Moncton Center
Thu 12:33:35 PM 47.2594 -67.3794 192° South 400 460 34,800 -774 Descending Boston Center
Thu 12:34:35 PM 47.1492 -67.4322 198° South 405 466 34,000 -552 Descending Boston Center
Thu 12:35:02 PM 47.0667 -67.4667 196° South 420 483 34,000  Level Moncton Center
Thu 12:36:02 PM 46.9667 -67.5333 204° Southwest 420 483 34,000  Level Moncton Center
Thu 12:37:02 PM 46.8500 -67.6000 201° Southwest 420 483 34,000  Level Moncton Center
Thu 12:43:18 PM 46.1770 -67.9710 201° Southwest 428 493 34,000  Level FlightAware ADS-B
Thu 12:43:58 PM 46.1030 -68.0110 201° Southwest 429 494 34,000  Level FlightAware ADS-B
Thu 12:44:43 PM 46.0200 -68.0550 200° South 431 496 34,000  Level FlightAware ADS-B
Thu 12:45:18 PM 45.9560 -68.0890 200° South 434 499 34,000  Level FlightAware ADS-B
Thu 12:46:08 PM 45.8610 -68.1390 200° South 432 497 34,000  Level FlightAware ADS-B
Thu 12:46:48 PM 45.7860 -68.1790 200° South 432 497 34,000  Level FlightAware ADS-B
Thu 12:47:33 PM 45.7030 -68.2230 200° South 434 499 34,000  Level FlightAware ADS-B
Thu 12:48:28 PM 45.6050 -68.2740 200° South 432 497 34,000  Level FlightAware ADS-B
Thu 12:49:38 PM 45.4750 -68.3420 200° South 429 494 34,000  Level FlightAware ADS-B
Thu 12:50:48 PM 45.3410 -68.4120 200° South 433 498 34,000  Level FlightAware ADS-B
Thu 12:51:43 PM 45.2270 -68.4710 200° South 441 507 34,000  Level FlightAware ADS-B
Thu 12:52:28 PM 45.1430 -68.5150 200° South 440 506 34,000  Level FlightAware ADS-B
Thu 12:53:08 PM 45.0650 -68.5550 200° South 442 509 34,000  Level FlightAware ADS-B
Thu 12:53:48 PM 44.9880 -68.5940 200° South 442 509 34,000  Level FlightAware ADS-B
Thu 12:54:33 PM 44.9020 -68.6380 200° South 441 507 34,000  Level FlightAware ADS-B
Thu 12:55:13 PM 44.8240 -68.6770 200° South 441 507 34,000  Level FlightAware ADS-B
Thu 12:55:53 PM 44.7480 -68.7170 200° South 443 510 34,000  Level FlightAware ADS-B
Thu 12:56:33 PM 44.6690 -68.7560 199° South 443 510 34,000  Level FlightAware ADS-B
Thu 12:57:18 PM 44.5850 -68.7990 200° South 442 509 34,000  Level FlightAware ADS-B
Thu 12:58:03 PM 44.4980 -68.8420 199° South 444 511 34,000  Level FlightAware ADS-B
Thu 12:58:43 PM 44.4190 -68.8820 200° South 448 516 34,000  Level FlightAware ADS-B
Thu 12:59:23 PM 44.3420 -68.9210 200° South 448 516 34,000  Level FlightAware ADS-B
Thu 12:59:58 PM 44.2760 -68.9540 200° South 447 514 34,000  Level FlightAware ADS-B
Thu 01:00:43 PM 44.1930 -68.9950 200° South 445 512 34,000  Level FlightAware ADS-B
Thu 01:01:48 PM 44.0620 -69.0600 200° South 443 510 34,000  Level FlightAware ADS-B
Thu 01:02:28 PM 43.9850 -69.0980 200° South 444 511 34,000  Level FlightAware ADS-B
Thu 01:03:08 PM 43.9090 -69.1350 199° South 446 513 34,000  Level FlightAware ADS-B
Thu 01:03:48 PM 43.8320 -69.1730 200° South 447 514 34,000  Level FlightAware ADS-B
Thu 01:04:33 PM 43.7440 -69.2160 199° South 445 512 34,000  Level FlightAware ADS-B
Thu 01:05:18 PM 43.6600 -69.2580 200° South 445 512 34,000  Level FlightAware ADS-B
Thu 01:05:58 PM 43.5810 -69.2960 199° South 443 510 34,000  Level FlightAware ADS-B
Thu 01:06:38 PM 43.5080 -69.3320 200° South 442 509 34,000  Level FlightAware ADS-B
Thu 01:07:13 PM 43.4430 -69.3630 199° South 441 507 34,000 -150 Level FlightAware ADS-B
Thu 01:07:58 PM 43.3460 -69.4100 199° South 434 499 33,800 -635 Descending FlightAware ADS-B
Thu 01:08:38 PM 43.2780 -69.4430 199° South 425 489 33,100 -1,080 Descending FlightAware ADS-B
Thu 01:09:38 PM 43.1700 -69.4950 199° South 425 489 32,000 -1,143 Descending FlightAware ADS-B
Thu 01:10:23 PM 43.0850 -69.5360 199° South 427 491 31,100 -1,267 Descending FlightAware ADS-B
Thu 01:11:08 PM 42.9960 -69.5780 199° South 425 489 30,100 -776 Descending FlightAware ADS-B
Thu 01:11:48 PM 42.9190 -69.6150 199° South 446 513 30,000 -75 Descending FlightAware ADS-B
Thu 01:12:28 PM 42.8460 -69.6500 199° South 445 512 30,000  Level FlightAware ADS-B
Thu 01:13:13 PM 42.7560 -69.6920 199° South 440 506 30,000  Level FlightAware ADS-B
Thu 01:13:53 PM 42.6820 -69.7270 199° South 442 509 30,000  Level FlightAware ADS-B
Thu 01:14:33 PM 42.5980 -69.7670 199° South 440 506 30,000  Level FlightAware ADS-B
Thu 01:15:18 PM 42.5080 -69.8090 199° South 442 509 30,000  Level FlightAware ADS-B
Thu 01:15:58 PM 42.4320 -69.8450 199° South 443 510 30,000  Level FlightAware ADS-B
Thu 01:16:43 PM 42.3410 -69.8870 199° South 444 511 30,000  Level FlightAware ADS-B
Thu 01:17:23 PM 42.2620 -69.9240 199° South 443 510 30,000  Level FlightAware ADS-B
Thu 01:18:03 PM 42.1850 -69.9600 199° South 441 507 30,000 -424 Level FlightAware ADS-B
Thu 01:18:48 PM 42.0970 -70.0010 199° South 444 511 29,400 -847 Descending FlightAware ADS-B
Thu 01:19:28 PM 42.0250 -70.0460 205° Southwest 422 486 28,800 -918 Descending FlightAware ADS-B
Thu 01:20:13 PM 41.9600 -70.1220 221° Southwest 407 468 28,100 -565 Descending FlightAware ADS-B
Thu 01:20:53 PM 41.9110 -70.1930 227° Southwest 408 470 28,000 -80 Descending FlightAware ADS-B
Thu 01:21:28 PM 41.8690 -70.2550 228° Southwest 404 465 28,000 -141 Level FlightAware ADS-B
Thu 01:22:18 PM 41.8040 -70.3500 227° Southwest 406 467 27,800 -667 Descending FlightAware ADS-B
Thu 01:22:58 PM 41.7550 -70.4210 227° Southwest 402 463 27,000 -1,050 Descending FlightAware ADS-B
Thu 01:23:38 PM 41.7040 -70.4960 228° Southwest 386 444 26,400 -706 Descending FlightAware ADS-B
Thu 01:24:23 PM 41.6490 -70.5750 227° Southwest 386 444 26,000 -282 Descending FlightAware ADS-B
Thu 01:25:03 PM 41.6000 -70.6460 227° Southwest 388 447 26,000  Level FlightAware ADS-B
Thu 01:25:48 PM 41.5430 -70.7280 227° Southwest 389 448 26,000  Level FlightAware ADS-B
Thu 01:26:28 PM 41.4950 -70.7970 227° Southwest 389 448 26,000  Level FlightAware ADS-B
Thu 01:27:08 PM 41.4430 -70.8720 227° Southwest 390 449 26,000  Level FlightAware ADS-B
Thu 01:27:53 PM 41.3890 -70.9490 227° Southwest 391 450 26,000  Level FlightAware ADS-B
Thu 01:28:33 PM 41.3370 -71.0240 227° Southwest 398 458 26,000  Level FlightAware ADS-B
Thu 01:29:18 PM 41.2810 -71.1040 227° Southwest 400 460 26,000  Level FlightAware ADS-B
Thu 01:29:58 PM 41.2410 -71.1860 237° Southwest 395 455 26,000  Level FlightAware ADS-B
Thu 01:30:43 PM 41.2130 -71.2860 250° West 392 451 26,000  Level FlightAware ADS-B
Thu 01:31:23 PM 41.1870 -71.3790 250° West 395 455 26,000  Level FlightAware ADS-B
Thu 01:32:03 PM 41.1620 -71.4680 250° West 398 458 26,000  Level FlightAware ADS-B
Thu 01:32:38 PM 41.1420 -71.5400 250° West 398 458 26,000  Level FlightAware ADS-B
Thu 01:33:43 PM 41.0970 -71.6990 249° West 403 464 26,000  Level FlightAware ADS-B
Thu 01:34:23 PM 41.0710 -71.7900 249° West 404 465 26,000  Level FlightAware ADS-B
Thu 01:35:03 PM 41.0470 -71.8740 249° West 402 463 26,000  Level FlightAware ADS-B
Thu 01:35:48 PM 41.0190 -71.9700 249° West 402 463 26,000  Level FlightAware ADS-B
Thu 01:36:33 PM 40.9680 -72.0760 238° Southwest 408 470 26,000  Level FlightAware ADS-B
Thu 01:37:13 PM 40.9150 -72.1500 227° Southwest 406 467 26,000  Level FlightAware ADS-B
Thu 01:37:53 PM 40.8600 -72.2270 227° Southwest 408 470 26,000  Level FlightAware ADS-B
Thu 01:38:14 PM 40.8306 -72.2681 227° Southwest 407 468 26,000  Level FlightAware ADS-B
Thu 01:38:44 PM 40.7917 -72.3227 227° Southwest 408 470 26,000  Level FlightAware ADS-B
Thu 01:39:16 PM 40.7493 -72.3821 227° Southwest 409 471 26,000  Level FlightAware ADS-B
Thu 01:39:58 PM 40.6955 -72.4571 227° Southwest 406 467 26,000  Level FlightAware ADS-B
Thu 01:40:43 PM 40.6420 -72.5320 227° Southwest 408 470 26,000  Level FlightAware ADS-B
Thu 01:40:49 PM 40.6296 -72.5488 226° Southwest 408 470 26,000 -474 Level FlightAware ADS-B
Thu 01:41:21 PM 40.5885 -72.6059 227° Southwest 408 470 25,700 -1,135 Descending FlightAware ADS-B
Thu 01:42:03 PM 40.5341 -72.6812 226° Southwest 403 464 24,600 -1,841 Descending FlightAware ADS-B
Thu 01:42:49 PM 40.4758 -72.7616 226° Southwest 396 456 23,000 -2,090 Descending FlightAware ADS-B
Thu 01:43:32 PM 40.4213 -72.8368 226° Southwest 391 450 21,500 -1,929 Descending FlightAware ADS-B
Thu 01:44:13 PM 40.3740 -72.9020 226° Southwest 379 436 20,300 -1,714 Descending FlightAware ADS-B
Thu 01:44:21 PM 40.3621 -72.9180 226° Southwest 373 429 20,100 -450 Descending FlightAware ADS-B
Thu 01:44:53 PM 40.3260 -72.9670 226° Southwest 369 425 20,000 -158 Descending FlightAware ADS-B
Thu 01:44:59 PM 40.3174 -72.9793 227° Southwest 365 420 20,000  Level FlightAware ADS-B
Thu 01:45:38 PM 40.2710 -73.0430 226° Southwest 390 449 20,000  Level FlightAware ADS-B
Thu 01:45:50 PM 40.2546 -73.0651 226° Southwest 378 435 20,000  Level FlightAware ADS-B
Thu 01:46:49 PM 40.1799 -73.1668 226° Southwest 392 451 20,000  Level FlightAware ADS-B
Thu 01:47:20 PM 40.1406 -73.2201 226° Southwest 393 452 20,000  Level FlightAware ADS-B
Thu 01:47:53 PM 40.0996 -73.2757 226° Southwest 391 450 20,000  Level FlightAware ADS-B
Thu 01:48:25 PM 40.0596 -73.3299 226° Southwest 391 450 20,000  Level FlightAware ADS-B
Thu 01:49:08 PM 40.0056 -73.4028 226° Southwest 393 452 20,000  Level FlightAware ADS-B
Thu 01:49:42 PM 39.9624 -73.4611 226° Southwest 393 452 20,000  Level FlightAware ADS-B
Thu 01:50:22 PM 39.9120 -73.5289 226° Southwest 394 453 20,000  Level FlightAware ADS-B
Thu 01:50:53 PM 39.8748 -73.5858 230° Southwest 392 451 20,000  Level FlightAware ADS-B
Thu 01:51:27 PM 39.8362 -73.6470 231° Southwest 392 451 20,000  Level FlightAware ADS-B
Thu 01:51:58 PM 39.8008 -73.7029 231° Southwest 393 452 20,000  Level FlightAware ADS-B
Thu 01:52:35 PM 39.7585 -73.7698 231° Southwest 393 452 20,000 -167 Level FlightAware ADS-B
Thu 01:53:10 PM 39.7181 -73.8336 231° Southwest 392 451 19,800 -727 Descending FlightAware ADS-B
Thu 01:53:41 PM 39.6828 -73.8892 230° Southwest 384 442 19,200 -1,662 Descending FlightAware ADS-B
Thu 01:54:15 PM 39.6444 -73.9496 230° Southwest 381 438 18,000 -2,182 Descending FlightAware ADS-B
Thu 01:54:47 PM 39.6084 -74.0061 230° Southwest 377 434 16,800 -2,190 Descending FlightAware ADS-B
Thu 01:55:18 PM 39.5751 -74.0583 230° Southwest 368 423 15,700 -2,149 Descending FlightAware ADS-B
Thu 01:55:54 PM 39.5372 -74.1183 231° Southwest 356 410 14,400 -2,045 Descending FlightAware ADS-B
Thu 01:56:02 PM 39.5304 -74.1341 241° Southwest 349 402 14,200 -1,043 Descending FlightAware ADS-B
Thu 01:56:17 PM 39.5253 -74.1631 257° West 345 397 14,000 -324 Descending FlightAware ADS-B
Thu 01:56:39 PM 39.5258 -74.2103 271° West 349 402 14,000  Level FlightAware ADS-B
Thu 01:57:11 PM 39.5267 -74.2774 271° West 350 403 14,000 -774 Level FlightAware ADS-B
Thu 01:57:41 PM 39.5277 -74.3407 271° West 356 410 13,200 -1,839 Descending FlightAware ADS-B
Thu 01:58:13 PM 39.5289 -74.4078 271° West 351 404 12,100 -1,486 Descending FlightAware ADS-B
Thu 01:59:26 PM 39.5315 -74.5527 271° West 334 384 10,600 -1,038 Descending FlightAware ADS-B
Thu 01:59:57 PM 39.5323 -74.6077 271° West 334 384 10,300 -484 Descending FlightAware ADS-B
Thu 02:00:28 PM 39.5332 -74.6578 271° West 275 316 10,100 -383 Descending FlightAware ADS-B
Thu 02:00:44 PM 39.5335 -74.6830 271° West 259 298 10,000 -1,067 Descending FlightAware ADS-B
Thu 02:01:13 PM 39.5342 -74.7281 271° West 256 295 9,300 -1,200 Descending FlightAware ADS-B
Thu 02:01:29 PM 39.5346 -74.7517 271° West 259 298 9,100 -563 Descending FlightAware ADS-B
Thu 02:01:45 PM 39.5350 -74.7771 271° West 259 298 9,000 -706 Descending FlightAware ADS-B
Thu 02:02:03 PM 39.5354 -74.8055 271° West 259 298 8,700 -686 Descending FlightAware ADS-B
Thu 02:02:20 PM 39.5358 -74.8310 271° West 256 295 8,600 -545 Descending FlightAware ADS-B
Thu 02:02:36 PM 39.5362 -74.8553 271° West 256 295 8,400 -1,161 Descending FlightAware ADS-B
Thu 02:02:51 PM 39.5365 -74.8784 271° West 256 295 8,000 -1,440 Descending FlightAware ADS-B
Thu 02:03:01 PM 39.5370 -74.8943 272° West 257 296 7,800 -1,500 Descending FlightAware ADS-B
Thu 02:03:07 PM 39.5382 -74.9023 281° West 258 297 7,600 -1,800 Descending FlightAware ADS-B
Thu 02:03:11 PM 39.5398 -74.9083 289° West 263 303 7,500 -1,200 Descending FlightAware ADS-B
Thu 02:03:17 PM 39.5433 -74.9164 299° West 266 306 7,400 -1,143 Descending FlightAware ADS-B
Thu 02:03:32 PM 39.5534 -74.9372 302° West 265 305 7,100 -1,167 Descending FlightAware ADS-B
Thu 02:03:53 PM 39.5655 -74.9655 299° West 263 303 6,700 -1,317 Descending FlightAware ADS-B
Thu 02:04:13 PM 39.5773 -74.9933 299° West 262 302 6,200 -1,333 Descending FlightAware ADS-B
Thu 02:04:29 PM 39.5866 -75.0156 298° West 262 302 5,900 -1,313 Descending FlightAware ADS-B
Thu 02:04:45 PM 39.5958 -75.0375 299° West 262 302 5,500 -1,548 Descending FlightAware ADS-B
Thu 02:05:00 PM 39.6048 -75.0590 299° West 264 304 5,100 -789 Descending FlightAware ADS-B
Thu 02:05:23 PM 39.6181 -75.0893 300° West 268 308 5,000 -154 Descending FlightAware ADS-B
Thu 02:05:39 PM 39.6277 -75.1135 297° West 269 310 5,000  Level FlightAware ADS-B
Thu 02:05:54 PM 39.6369 -75.1354 299° West 273 314 5,000  Level FlightAware ADS-B
Thu 02:06:10 PM 39.6460 -75.1573 298° West 272 313 5,000  Level FlightAware ADS-B
Thu 02:06:25 PM 39.6552 -75.1794 298° West 276 318 5,000  Level FlightAware ADS-B
Thu 02:06:40 PM 39.6644 -75.2014 299° West 276 318 5,000  Level FlightAware ADS-B
Thu 02:06:55 PM 39.6736 -75.2235 298° West 277 319 5,000  Level FlightAware ADS-B
Thu 02:07:11 PM 39.6830 -75.2461 298° West 275 316 5,000  Level FlightAware ADS-B
Thu 02:07:27 PM 39.6926 -75.2690 299° West 277 319 5,000  Level FlightAware ADS-B
Thu 02:07:39 PM 39.7003 -75.2875 298° West 274 315 5,000  Level FlightAware ADS-B
Thu 02:07:55 PM 39.7099 -75.3104 299° West 274 315 5,000  Level FlightAware ADS-B
Thu 02:08:11 PM 39.7195 -75.3334 298° West 260 299 5,000  Level FlightAware ADS-B
Thu 02:08:27 PM 39.7281 -75.3542 298° West 245 282 5,000  Level FlightAware ADS-B
Thu 02:08:37 PM 39.7333 -75.3673 297° West 234 269 5,000  Level FlightAware ADS-B
Thu 02:08:42 PM 39.7348 -75.3726 290° West 229 264 5,000  Level FlightAware ADS-B
Thu 02:08:47 PM 39.7357 -75.3793 280° West 220 253 5,000  Level FlightAware ADS-B
Thu 02:08:52 PM 39.7357 -75.3857 270° West 211 243 5,000  Level FlightAware ADS-B
Thu 02:08:57 PM 39.7349 -75.3926 261° West 202 232 5,000  Level FlightAware ADS-B
Thu 02:09:08 PM 39.7329 -75.4044 258° West 191 220 5,000 222 Level FlightAware ADS-B
Thu 02:09:24 PM 39.7293 -75.4213 255° West 176 203 5,100  Climbing FlightAware ADS-B
Thu 02:09:42 PM 39.7252 -75.4402 254° West 176 203 5,000 -273 Descending FlightAware ADS-B
Thu 02:09:46 PM 39.7246 -75.4435 257° West 176 203 5,000  Level FlightAware ADS-B
Thu 02:09:53 PM 39.7244 -75.4510 268° West 182 209 5,000 -545 Level FlightAware ADS-B
Thu 02:09:57 PM 39.7253 -75.4561 283° West 184 212 4,900 -1,333 Descending FlightAware ADS-B
Thu 02:10:02 PM 39.7270 -75.4608 295° West 190 219 4,800 -1,636 Descending FlightAware ADS-B
Thu 02:10:08 PM 39.7307 -75.4665 310° West 197 227 4,600 -1,636 Descending FlightAware ADS-B
Thu 02:10:13 PM 39.7339 -75.4697 322° Northwest 199 229 4,500 -1,500 Descending FlightAware ADS-B
Thu 02:10:16 PM 39.7370 -75.4717 334° Northwest 200 230 4,400 -1,500 Descending FlightAware ADS-B
Thu 02:10:21 PM 39.7411 -75.4737 339° North 200 230 4,300 -1,429 Descending FlightAware ADS-B
Thu 02:10:37 PM 39.7545 -75.4798 341° North 197 227 3,900 -1,313 Descending FlightAware ADS-B
Thu 02:10:53 PM 39.7687 -75.4866 340° North 197 227 3,600 -938 Descending FlightAware ADS-B
Thu 02:11:09 PM 39.7817 -75.4928 340° North 196 226 3,400 -947 Descending FlightAware ADS-B
Thu 02:11:12 PM 39.7848 -75.4941 342° North 195 224 3,300 -2,000 Descending FlightAware ADS-B
Thu 02:11:15 PM 39.7874 -75.4948 348° North 195 224 3,200 -1,000 Descending FlightAware ADS-B
Thu 02:11:18 PM 39.7901 -75.4952 354° North 195 224 3,200 -857 Level FlightAware ADS-B
Thu 02:11:22 PM 39.7934 -75.4949 North 195 224 3,100 -750 Descending FlightAware ADS-B
Thu 02:11:26 PM 39.7966 -75.4938 15° North 192 221 3,100 -750 Level FlightAware ADS-B
Thu 02:11:30 PM 39.7999 -75.4918 25° Northeast 190 219 3,000 -750 Descending FlightAware ADS-B
Thu 02:11:34 PM 39.8031 -75.4891 33° Northeast 189 217 3,000  Level FlightAware ADS-B
Thu 02:11:38 PM 39.8055 -75.4865 40° Northeast 189 217 3,000  Level FlightAware ADS-B
Thu 02:11:45 PM 39.8102 -75.4808 43° Northeast 189 217 3,000  Level FlightAware ADS-B
Thu 02:11:59 PM 39.8188 -75.4695 45° Northeast 186 214 3,000  Level FlightAware ADS-B
Thu 02:12:02 PM 39.8206 -75.4666 51° Northeast 186 214 3,000 -600 Level FlightAware ADS-B
Thu 02:12:09 PM 39.8235 -75.4600 60° Northeast 185 213 2,900 -545 Descending FlightAware ADS-B
Thu 02:12:13 PM 39.8247 -75.4557 70° East 183 211 2,900 -500 Level FlightAware ADS-B
Thu 02:12:21 PM 39.8263 -75.4480 75° East 182 209 2,800 -900 Descending FlightAware ADS-B
Thu 02:12:33 PM 39.8286 -75.4351 77° East 184 212 2,600 -1,111 Descending FlightAware ADS-B
Thu 02:12:48 PM 39.8321 -75.4183 75° East 183 211 2,300 -1,200 Descending FlightAware ADS-B

Login

Don't have an account? Register now (free) for customized features, flight alerts, and more!